createdAt,value
2023-11-01T00:01:10.730Z,3.55
2023-11-01T00:03:37.713Z,3.72
2023-11-01T00:06:05.084Z,3.60
2023-11-01T00:08:31.949Z,3.80
2023-11-01T00:10:58.832Z,3.35
2023-11-01T00:13:25.680Z,2.83
2023-11-01T00:15:52.459Z,3.35
2023-11-01T00:18:19.792Z,3.03
2023-11-01T00:20:46.946Z,3.13
2023-11-01T00:23:13.859Z,3.28
2023-11-01T00:25:42.045Z,3.10
2023-11-01T00:28:09.276Z,3.20
2023-11-01T00:30:36.579Z,2.60
2023-11-01T00:33:03.710Z,2.45
2023-11-01T00:35:30.564Z,3.35
2023-11-01T00:37:57.367Z,2.55
2023-11-01T00:40:24.135Z,2.78
2023-11-01T00:42:51.052Z,2.80
2023-11-01T00:45:18.102Z,3.00
2023-11-01T00:47:45.136Z,2.80
2023-11-01T00:50:11.985Z,2.25
2023-11-01T00:52:38.799Z,2.67
2023-11-01T00:55:06.173Z,2.73
2023-11-01T00:57:33.981Z,2.80
2023-11-01T01:00:02.312Z,2.17
2023-11-01T01:02:29.349Z,2.08
2023-11-01T01:04:56.279Z,2.45
2023-11-01T01:07:23.745Z,2.40
2023-11-01T01:09:50.704Z,2.10
2023-11-01T01:12:17.572Z,2.42
2023-11-01T01:14:44.511Z,2.58
2023-11-01T01:17:11.422Z,2.55
2023-11-01T01:19:38.309Z,2.97
2023-11-01T01:22:05.443Z,2.55
2023-11-01T01:24:32.389Z,3.00
2023-11-01T01:26:59.198Z,3.13
2023-11-01T01:29:26.020Z,2.55
2023-11-01T01:31:52.811Z,3.03
2023-11-01T01:34:19.760Z,3.15
2023-11-01T01:36:46.535Z,2.65
2023-11-01T01:39:13.304Z,2.33
2023-11-01T01:41:40.506Z,2.72
2023-11-01T01:44:08.116Z,2.27
2023-11-01T01:46:35.605Z,1.98
2023-11-01T01:49:02.637Z,2.75
2023-11-01T01:51:29.700Z,2.42
2023-11-01T01:53:57.225Z,2.28
2023-11-01T01:56:25.860Z,2.60
2023-11-01T01:58:53.538Z,2.40
2023-11-01T02:01:32.404Z,1.75
2023-11-01T02:04:05.723Z,2.33
2023-11-01T02:06:32.723Z,2.05
2023-11-01T02:08:59.602Z,2.23
2023-11-01T02:11:26.504Z,2.13
2023-11-01T02:13:53.286Z,2.53
2023-11-01T02:16:20.109Z,2.10
2023-11-01T02:18:46.927Z,2.40
2023-11-01T02:21:13.805Z,1.90
2023-11-01T02:23:41.824Z,1.83
2023-11-01T02:26:08.765Z,1.85
2023-11-01T02:28:35.983Z,1.80
2023-11-01T02:31:04.737Z,1.85
2023-11-01T02:33:32.840Z,2.07
2023-11-01T02:35:59.649Z,2.08
2023-11-01T02:38:26.462Z,1.98
2023-11-01T02:40:53.235Z,1.50
2023-11-01T02:43:20.043Z,2.22
2023-11-01T02:45:47.154Z,1.70
2023-11-01T02:48:14.144Z,1.50
2023-11-01T02:50:41.256Z,1.63
2023-11-01T02:53:08.017Z,1.60
2023-11-01T02:55:34.832Z,1.45
2023-11-01T02:58:03.742Z,1.50
2023-11-01T03:00:30.629Z,1.25
2023-11-01T03:02:58.637Z,1.33
2023-11-01T03:05:29.699Z,1.55
2023-11-01T03:07:57.765Z,1.13
2023-11-01T03:10:24.993Z,1.10
2023-11-01T03:12:51.869Z,1.48
2023-11-01T03:15:18.819Z,1.05
2023-11-01T03:17:45.748Z,1.00
2023-11-01T03:20:12.749Z,1.52
2023-11-01T03:22:39.646Z,0.87
2023-11-01T03:25:07.101Z,1.25
2023-11-01T03:27:34.111Z,1.42
2023-11-01T03:30:01.110Z,1.10
2023-11-01T03:32:28.123Z,1.30
2023-11-01T03:34:54.997Z,1.10
2023-11-01T03:37:21.812Z,1.30
2023-11-01T03:39:48.642Z,1.50
2023-11-01T03:42:15.577Z,1.20
2023-11-01T03:44:43.223Z,1.35
2023-11-01T03:47:10.107Z,1.20
2023-11-01T03:49:36.897Z,1.02
2023-11-01T03:52:04.528Z,1.30
2023-11-01T03:54:35.007Z,1.73
2023-11-01T03:57:04.047Z,1.25
2023-11-01T03:59:32.204Z,1.43
2023-11-01T04:01:59.688Z,1.63
2023-11-01T04:04:26.483Z,1.48
2023-11-01T04:06:53.307Z,1.60
2023-11-01T04:09:20.305Z,1.90
2023-11-01T04:11:47.335Z,1.50
2023-11-01T04:14:15.935Z,1.60
2023-11-01T04:16:43.136Z,2.30
2023-11-01T04:19:12.585Z,1.73
2023-11-01T04:21:39.572Z,1.85
2023-11-01T04:24:06.734Z,2.00
2023-11-01T04:26:35.069Z,2.53
2023-11-01T04:29:01.979Z,2.20
2023-11-01T04:31:28.966Z,1.60
2023-11-01T04:33:55.975Z,2.03
2023-11-01T04:36:28.562Z,2.20
2023-11-01T04:38:56.805Z,1.88
2023-11-01T04:41:29.411Z,1.92
2023-11-01T04:43:56.717Z,1.77
2023-11-01T04:46:23.893Z,1.58
2023-11-01T04:48:51.407Z,1.63
2023-11-01T04:51:18.517Z,1.70
2023-11-01T04:53:46.060Z,1.27
2023-11-01T04:56:12.977Z,1.50
2023-11-01T04:58:40.152Z,1.30
2023-11-01T05:01:09.137Z,1.47
2023-11-01T05:03:40.001Z,1.58
2023-11-01T05:06:07.706Z,1.17
2023-11-01T05:08:36.118Z,1.40
2023-11-01T05:11:03.480Z,1.38
2023-11-01T05:13:30.270Z,1.10
2023-11-01T05:15:57.232Z,1.48
2023-11-01T05:18:25.931Z,1.50
2023-11-01T05:20:53.169Z,1.42
2023-11-01T05:23:20.528Z,1.15
2023-11-01T05:25:50.259Z,1.30
2023-11-01T05:28:17.334Z,1.50
2023-11-01T05:30:44.262Z,1.52
2023-11-01T05:33:11.194Z,1.92
2023-11-01T05:35:38.393Z,1.58
2023-11-01T05:38:08.289Z,1.80
2023-11-01T05:40:35.083Z,1.80
2023-11-01T05:43:01.868Z,2.03
2023-11-01T05:45:29.755Z,1.88
2023-11-01T05:47:57.423Z,2.22
2023-11-01T05:50:26.356Z,2.50
2023-11-01T05:52:55.858Z,2.50
2023-11-01T05:55:26.725Z,2.30
2023-11-01T05:58:01.255Z,2.15
2023-11-01T06:00:28.363Z,2.42
2023-11-01T06:02:55.517Z,2.23
2023-11-01T06:05:24.264Z,2.58
2023-11-01T06:07:51.831Z,2.65
2023-11-01T06:10:19.336Z,2.38
2023-11-01T06:12:46.374Z,2.28
2023-11-01T06:15:14.612Z,3.10
2023-11-01T06:17:41.828Z,3.88
2023-11-01T06:20:09.288Z,3.13
2023-11-01T06:22:36.264Z,3.83
2023-11-01T06:25:03.501Z,3.83
2023-11-01T06:27:30.452Z,2.97
2023-11-01T06:29:57.521Z,3.50
2023-11-01T06:32:24.479Z,3.65
2023-11-01T06:34:51.332Z,3.35
2023-11-01T06:37:18.415Z,3.65
2023-11-01T06:39:45.435Z,3.60
2023-11-01T06:42:12.481Z,3.10
2023-11-01T06:44:39.439Z,3.47
2023-11-01T06:47:06.465Z,3.47
2023-11-01T06:49:35.758Z,3.03
2023-11-01T06:52:03.012Z,2.70
2023-11-01T06:54:29.934Z,3.45
2023-11-01T06:56:57.774Z,3.05
2023-11-01T06:59:24.980Z,2.42
2023-11-01T07:01:52.782Z,2.85
2023-11-01T07:04:19.880Z,2.00
2023-11-01T07:06:47.181Z,2.08
2023-11-01T07:09:14.307Z,2.33
2023-11-01T07:11:41.256Z,1.77
2023-11-01T07:14:08.278Z,2.03
2023-11-01T07:16:42.622Z,1.50
2023-11-01T07:19:09.732Z,2.13
2023-11-01T07:21:36.724Z,2.05
2023-11-01T07:24:03.831Z,1.25
2023-11-01T07:26:30.971Z,1.15
2023-11-01T07:28:57.908Z,1.40
2023-11-01T07:31:24.927Z,1.33
2023-11-01T07:33:51.901Z,1.50
2023-11-01T07:36:20.056Z,1.45
2023-11-01T07:38:47.737Z,1.50
2023-11-01T07:41:16.402Z,1.27
2023-11-01T07:43:43.918Z,1.20
2023-11-01T07:46:11.856Z,1.33
2023-11-01T07:48:38.876Z,0.93
2023-11-01T07:51:07.232Z,1.00
2023-11-01T07:53:36.117Z,1.93
2023-11-01T07:56:03.780Z,1.48
2023-11-01T07:58:32.335Z,1.38
2023-11-01T08:01:00.027Z,1.00
2023-11-01T08:03:27.732Z,1.17
2023-11-01T08:05:55.063Z,1.50
2023-11-01T08:08:22.172Z,1.27
2023-11-01T08:10:49.198Z,1.20
2023-11-01T08:13:16.757Z,1.52
2023-11-01T08:15:44.058Z,1.35
2023-11-01T08:18:11.967Z,1.60
2023-11-01T08:20:40.011Z,1.60
2023-11-01T08:23:07.414Z,1.23
2023-11-01T08:25:35.925Z,1.15
2023-11-01T08:28:04.092Z,1.73
2023-11-01T08:30:31.017Z,1.17
2023-11-01T08:32:58.380Z,1.23
2023-11-01T08:35:25.579Z,1.20
2023-11-01T08:37:52.580Z,1.50
2023-11-01T08:40:19.804Z,1.30
2023-11-01T08:42:47.062Z,1.67
2023-11-01T08:45:14.033Z,1.27
2023-11-01T08:47:47.184Z,1.52
2023-11-01T08:50:15.066Z,1.23
2023-11-01T08:52:47.264Z,1.58
2023-11-01T08:55:15.575Z,2.33
2023-11-01T08:57:45.476Z,1.20
2023-11-01T09:00:15.192Z,1.27
2023-11-01T09:02:42.904Z,0.90
2023-11-01T09:05:10.499Z,1.10
2023-11-01T09:07:38.271Z,0.93
2023-11-01T09:10:06.695Z,1.25
2023-11-01T09:12:33.668Z,1.50
2023-11-01T09:15:01.668Z,0.90
2023-11-01T09:17:28.850Z,1.38
2023-11-01T09:19:58.999Z,1.00
2023-11-01T09:22:33.116Z,1.08
2023-11-01T09:25:01.428Z,1.08
2023-11-01T09:27:29.570Z,0.85
2023-11-01T09:29:57.366Z,0.95
2023-11-01T09:32:24.464Z,0.70
2023-11-01T09:34:53.410Z,0.77
2023-11-01T09:37:20.620Z,1.10
2023-11-01T09:39:47.982Z,1.00
2023-11-01T09:42:22.657Z,1.00
2023-11-01T09:44:57.049Z,1.30
2023-11-01T09:47:26.230Z,0.77
2023-11-01T09:49:58.325Z,0.93
2023-11-01T09:52:25.531Z,0.90
2023-11-01T09:54:52.719Z,1.23
2023-11-01T09:57:23.902Z,0.70
2023-11-01T09:59:51.770Z,1.27
2023-11-01T10:02:19.228Z,0.85
2023-11-01T10:04:46.284Z,1.25
2023-11-01T10:07:13.437Z,0.60
2023-11-01T10:09:40.837Z,0.70
2023-11-01T10:12:09.866Z,0.98
2023-11-01T10:14:38.130Z,0.90
2023-11-01T10:17:05.786Z,0.70
2023-11-01T10:19:33.415Z,0.98
2023-11-01T10:22:00.618Z,0.70
2023-11-01T10:24:28.785Z,0.75
2023-11-01T10:26:58.717Z,0.70
2023-11-01T10:29:28.771Z,1.15
2023-11-01T10:31:57.206Z,0.85
2023-11-01T10:34:31.947Z,0.60
2023-11-01T10:37:01.189Z,0.75
2023-11-01T10:39:28.259Z,0.57
2023-11-01T10:41:56.701Z,0.80
2023-11-01T10:44:24.577Z,0.80
2023-11-01T10:46:52.147Z,0.50
2023-11-01T10:49:20.171Z,0.70
2023-11-01T10:51:47.218Z,0.68
2023-11-01T10:54:14.524Z,0.68
2023-11-01T10:56:42.141Z,0.70
2023-11-01T10:59:33.050Z,0.90
2023-11-01T11:02:18.727Z,0.93
2023-11-01T11:04:55.206Z,0.77
2023-11-01T11:07:50.198Z,0.80
2023-11-01T11:10:28.321Z,0.50
2023-11-01T11:13:10.628Z,0.80
2023-11-01T11:15:52.663Z,0.70
2023-11-01T11:18:24.091Z,0.55
2023-11-01T11:20:55.166Z,0.68
2023-11-01T11:23:32.892Z,0.50
2023-11-01T11:26:01.742Z,1.10
2023-11-01T11:28:41.128Z,0.63
2023-11-01T11:31:19.741Z,0.60
2023-11-01T11:33:47.402Z,0.70
2023-11-01T11:36:19.483Z,0.70
2023-11-01T11:38:57.218Z,0.77
2023-11-01T11:41:40.746Z,0.70
2023-11-01T11:44:16.764Z,0.60
2023-11-01T11:46:48.759Z,0.70
2023-11-01T11:49:32.745Z,0.73
2023-11-01T11:52:03.337Z,0.80
2023-11-01T11:54:32.232Z,0.63
2023-11-01T11:57:04.172Z,0.75
2023-11-01T11:59:33.220Z,0.80
2023-11-01T12:02:15.170Z,0.70
2023-11-01T12:04:44.708Z,0.57
2023-11-01T12:07:22.597Z,0.70
2023-11-01T12:09:50.868Z,0.70
2023-11-01T12:12:17.936Z,0.80
2023-11-01T12:14:48.061Z,0.55
2023-11-01T12:17:15.601Z,0.60
2023-11-01T12:19:48.299Z,0.60
2023-11-01T12:22:17.004Z,0.60
2023-11-01T12:24:47.742Z,0.70
2023-11-01T12:27:16.402Z,0.47
2023-11-01T12:29:47.378Z,0.60
2023-11-01T12:32:17.945Z,0.40
2023-11-01T12:34:47.756Z,0.55
2023-11-01T12:37:31.472Z,0.32
2023-11-01T12:40:15.722Z,0.70
2023-11-01T12:43:06.333Z,0.70
2023-11-01T12:45:34.288Z,0.57
2023-11-01T12:48:01.814Z,0.65
2023-11-01T12:50:33.071Z,0.68
2023-11-01T12:53:00.603Z,0.73
2023-11-01T12:55:28.014Z,0.60
2023-11-01T12:57:56.152Z,0.60
2023-11-01T13:00:24.854Z,0.35
2023-11-01T13:02:53.548Z,0.40
2023-11-01T13:05:21.637Z,0.50
2023-11-01T13:07:49.259Z,0.40
2023-11-01T13:10:17.597Z,0.50
2023-11-01T13:12:46.709Z,0.40
2023-11-01T13:15:14.695Z,0.43
2023-11-01T13:17:41.838Z,1.25
2023-11-01T13:20:09.394Z,0.40
2023-11-01T13:22:37.555Z,0.63
2023-11-01T13:25:04.804Z,0.30
2023-11-01T13:27:31.764Z,0.40
2023-11-01T13:29:58.690Z,0.40
2023-11-01T13:32:25.694Z,0.30
2023-11-01T13:34:52.775Z,0.50
2023-11-01T13:37:19.838Z,0.50
2023-11-01T13:39:46.861Z,0.30
2023-11-01T13:42:16.673Z,0.70
2023-11-01T13:44:45.089Z,0.50
2023-11-01T13:47:12.618Z,0.50
2023-11-01T13:49:41.428Z,0.40
2023-11-01T13:52:09.934Z,0.52
2023-11-01T13:54:36.875Z,0.47
2023-11-01T13:57:06.439Z,0.70
2023-11-01T13:59:33.428Z,0.40
2023-11-01T14:02:00.743Z,0.30
2023-11-01T14:04:27.908Z,0.32
2023-11-01T14:06:54.962Z,0.55
2023-11-01T14:09:22.410Z,0.37
2023-11-01T14:11:53.525Z,0.35
2023-11-01T14:14:22.704Z,0.55
2023-11-01T14:16:50.287Z,0.30
2023-11-01T14:19:17.244Z,0.57
2023-11-01T14:21:44.494Z,0.30
2023-11-01T14:24:11.843Z,0.30
2023-11-01T14:26:39.297Z,0.32
2023-11-01T14:29:07.711Z,0.50
2023-11-01T14:31:34.839Z,0.60
2023-11-01T14:34:01.995Z,0.30
2023-11-01T14:36:29.139Z,0.40
2023-11-01T14:38:56.252Z,0.63
2023-11-01T14:41:23.403Z,0.40
2023-11-01T14:43:50.607Z,0.45
2023-11-01T14:46:17.648Z,0.30
2023-11-01T14:48:45.373Z,0.70
2023-11-01T14:51:12.941Z,0.40
2023-11-01T14:53:40.049Z,0.32
2023-11-01T14:56:16.115Z,0.30
2023-11-01T14:58:48.438Z,0.50
2023-11-01T15:01:16.301Z,0.43
2023-11-01T15:03:45.636Z,0.43
2023-11-01T15:06:13.543Z,0.65
2023-11-01T15:08:41.133Z,0.70
2023-11-01T15:11:08.483Z,0.60
2023-11-01T15:13:35.584Z,0.40
2023-11-01T15:16:02.608Z,0.43
2023-11-01T15:18:29.763Z,0.70
2023-11-01T15:20:57.050Z,0.50
2023-11-01T15:23:24.080Z,0.43
2023-11-01T15:25:51.198Z,0.60
2023-11-01T15:28:18.042Z,0.35
2023-11-01T15:30:45.112Z,0.52
2023-11-01T15:33:12.664Z,0.40
2023-11-01T15:35:40.265Z,0.33
2023-11-01T15:38:07.311Z,0.60
2023-11-01T15:40:35.168Z,0.40
2023-11-01T15:43:03.396Z,0.65
2023-11-01T15:45:30.383Z,0.52
2023-11-01T15:47:57.734Z,0.40
2023-11-01T15:50:24.824Z,0.60
2023-11-01T15:52:51.753Z,0.50
2023-11-01T15:55:18.714Z,0.47
2023-11-01T15:57:45.902Z,0.40
2023-11-01T16:00:13.853Z,0.50
2023-11-01T16:02:40.966Z,0.45
2023-11-01T16:05:08.691Z,0.50
2023-11-01T16:07:35.726Z,0.50
2023-11-01T16:10:03.798Z,0.40
2023-11-01T16:12:30.847Z,0.43
2023-11-01T16:14:57.844Z,0.45
2023-11-01T16:17:24.821Z,0.43
2023-11-01T16:19:51.707Z,0.60
2023-11-01T16:22:19.857Z,0.50
2023-11-01T16:24:46.662Z,0.40
2023-11-01T16:27:13.632Z,0.70
2023-11-01T16:29:40.615Z,0.50
2023-11-01T16:32:07.806Z,0.60
2023-11-01T16:34:35.497Z,0.35
2023-11-01T16:37:02.918Z,0.40
2023-11-01T16:39:29.785Z,0.57
2023-11-01T16:41:56.839Z,0.35
2023-11-01T16:44:23.896Z,0.32
2023-11-01T16:46:51.040Z,0.30
2023-11-01T16:49:18.130Z,0.30
2023-11-01T16:51:47.895Z,0.20
2023-11-01T16:54:16.237Z,0.55
2023-11-01T16:56:43.212Z,0.30
2023-11-01T16:59:10.262Z,0.38
2023-11-01T17:01:37.245Z,0.30
2023-11-01T17:04:04.737Z,0.45
2023-11-01T17:06:31.988Z,0.50
2023-11-01T17:08:58.902Z,0.22
2023-11-01T17:11:26.973Z,0.50
2023-11-01T17:13:55.591Z,0.43
2023-11-01T17:16:22.619Z,0.60
2023-11-01T17:18:49.618Z,0.32
2023-11-01T17:21:16.710Z,0.52
2023-11-01T17:23:45.806Z,0.30
2023-11-01T17:26:27.648Z,0.50
2023-11-01T17:28:56.603Z,0.43
2023-11-01T17:31:45.236Z,0.43
2023-11-01T17:34:20.545Z,0.20
2023-11-01T17:36:47.589Z,0.30
2023-11-01T17:39:14.572Z,0.50
2023-11-01T17:41:50.639Z,0.50
2023-11-01T17:44:18.619Z,0.43
2023-11-01T17:46:45.470Z,0.40
2023-11-01T17:49:41.514Z,0.40
2023-11-01T17:52:08.828Z,0.30
2023-11-01T17:54:38.354Z,0.77
2023-11-01T17:57:06.616Z,0.50
2023-11-01T17:59:37.813Z,0.50
2023-11-01T18:02:31.365Z,0.30
2023-11-01T18:05:00.323Z,0.50
2023-11-01T18:07:27.913Z,0.50
2023-11-01T18:09:58.193Z,0.30
2023-11-01T18:12:25.145Z,0.40
2023-11-01T18:14:55.258Z,0.50
2023-11-01T18:17:23.189Z,0.30
2023-11-01T18:19:50.471Z,0.50
2023-11-01T18:22:41.274Z,0.80
2023-11-01T18:25:30.857Z,0.50
2023-11-01T18:28:01.935Z,0.73
2023-11-01T18:30:29.004Z,0.30
2023-11-01T18:32:56.008Z,0.38
2023-11-01T18:35:30.979Z,0.75
2023-11-01T18:37:57.771Z,0.70
2023-11-01T18:40:25.776Z,0.50
2023-11-01T18:42:58.766Z,0.40
2023-11-01T18:45:25.891Z,0.43
2023-11-01T18:47:54.249Z,0.40
2023-11-01T18:50:21.331Z,0.40
2023-11-01T18:52:48.589Z,0.50
2023-11-01T18:55:33.770Z,0.50
2023-11-01T18:58:00.626Z,0.40
2023-11-01T19:00:28.458Z,0.50
2023-11-01T19:03:06.897Z,0.50
2023-11-01T19:05:34.886Z,0.55
2023-11-01T19:08:02.169Z,0.50
2023-11-01T19:10:34.702Z,0.50
2023-11-01T19:13:02.819Z,0.40
2023-11-01T19:15:38.605Z,0.55
2023-11-01T19:18:11.278Z,0.60
2023-11-01T19:20:40.342Z,0.50
2023-11-01T19:23:08.022Z,0.40
2023-11-01T19:25:35.240Z,0.50
2023-11-01T19:28:03.457Z,0.40
2023-11-01T19:30:30.379Z,0.57
2023-11-01T19:32:57.509Z,0.60
2023-11-01T19:35:24.438Z,0.77
2023-11-01T19:37:51.360Z,0.35
2023-11-01T19:40:19.950Z,0.52
2023-11-01T19:42:47.303Z,0.50
2023-11-01T19:45:14.277Z,0.60
2023-11-01T19:47:42.258Z,0.70
2023-11-01T19:50:09.974Z,0.50
2023-11-01T19:52:38.002Z,0.38
2023-11-01T19:55:05.425Z,0.55
2023-11-01T19:57:33.694Z,0.57
2023-11-01T20:00:00.927Z,0.52
2023-11-01T20:02:28.069Z,0.40
2023-11-01T20:04:55.357Z,0.80
2023-11-01T20:07:22.442Z,0.50
2023-11-01T20:09:49.280Z,0.50
2023-11-01T20:12:16.184Z,0.50
2023-11-01T20:14:43.338Z,0.80
2023-11-01T20:17:11.822Z,0.50
2023-11-01T20:19:38.824Z,0.70
2023-11-01T20:22:05.770Z,0.93
2023-11-01T20:24:32.742Z,0.73
2023-11-01T20:26:59.711Z,0.65
2023-11-01T20:29:27.801Z,0.40
2023-11-01T20:31:54.785Z,0.70
2023-11-01T20:34:22.037Z,0.60
2023-11-01T20:36:49.039Z,0.60
2023-11-01T20:39:15.889Z,0.70
2023-11-01T20:41:43.427Z,0.60
2023-11-01T20:44:10.236Z,0.82
2023-11-01T20:46:37.153Z,0.40
2023-11-01T20:49:04.870Z,0.50
2023-11-01T20:51:31.847Z,0.90
2023-11-01T20:53:59.689Z,0.52
2023-11-01T20:56:26.783Z,0.75
2023-11-01T20:58:54.287Z,0.87
2023-11-01T21:01:21.231Z,0.57
2023-11-01T21:03:49.098Z,0.80
2023-11-01T21:06:16.298Z,0.50
2023-11-01T21:08:43.294Z,0.50
2023-11-01T21:11:10.422Z,0.70
2023-11-01T21:13:37.339Z,0.60
2023-11-01T21:16:04.723Z,0.52
2023-11-01T21:18:33.070Z,0.50
2023-11-01T21:21:02.022Z,0.70
2023-11-01T21:23:29.062Z,0.60
2023-11-01T21:25:56.603Z,0.68
2023-11-01T21:28:23.707Z,0.75
2023-11-01T21:30:50.857Z,0.75
2023-11-01T21:33:22.500Z,0.40
2023-11-01T21:35:49.802Z,0.53
2023-11-01T21:38:18.138Z,0.63
2023-11-01T21:40:47.881Z,0.40
2023-11-01T21:43:18.659Z,0.50
2023-11-01T21:45:52.819Z,0.40
2023-11-01T21:48:25.813Z,0.50
2023-11-01T21:50:56.155Z,0.80
2023-11-01T21:53:23.823Z,0.60
2023-11-01T21:55:55.594Z,0.88
2023-11-01T21:58:26.462Z,0.68
2023-11-01T22:01:00.014Z,0.93
2023-11-01T22:03:42.159Z,0.75
2023-11-01T22:06:39.606Z,0.50
2023-11-01T22:09:06.568Z,0.60
2023-11-01T22:11:40.157Z,0.82
2023-11-01T22:14:09.007Z,0.73
2023-11-01T22:16:37.656Z,0.60
2023-11-01T22:19:38.499Z,1.20
2023-11-01T22:22:21.368Z,0.55
2023-11-01T22:24:48.857Z,0.80
2023-11-01T22:27:17.554Z,0.70
2023-11-01T22:29:51.104Z,0.65
2023-11-01T22:32:23.574Z,0.65
2023-11-01T22:34:52.964Z,0.82
2023-11-01T22:37:28.509Z,0.73
2023-11-01T22:39:57.062Z,0.70
2023-11-01T22:42:32.139Z,1.10
2023-11-01T22:45:03.510Z,0.50
2023-11-01T22:47:31.238Z,0.70
2023-11-01T22:49:59.153Z,0.60
2023-11-01T22:52:26.119Z,0.60
2023-11-01T22:54:53.047Z,0.70
2023-11-01T22:57:19.908Z,0.57
2023-11-01T22:59:46.816Z,0.60
2023-11-01T23:02:16.592Z,0.88
2023-11-01T23:04:43.879Z,0.77
2023-11-01T23:07:11.721Z,0.57
2023-11-01T23:09:38.706Z,0.60
2023-11-01T23:12:06.320Z,0.60
2023-11-01T23:14:33.242Z,0.57
2023-11-01T23:17:00.029Z,0.50
2023-11-01T23:19:27.051Z,0.63
2023-11-01T23:21:54.102Z,0.70
2023-11-01T23:24:24.412Z,0.95
2023-11-01T23:26:54.879Z,0.63
2023-11-01T23:29:37.021Z,0.50
2023-11-01T23:32:17.091Z,0.50
2023-11-01T23:34:52.184Z,0.40
2023-11-01T23:37:38.842Z,0.40
2023-11-01T23:40:11.548Z,0.47
2023-11-01T23:42:38.626Z,0.63
2023-11-01T23:45:55.142Z,0.50
2023-11-01T23:48:22.044Z,1.00
2023-11-01T23:50:49.392Z,0.50
2023-11-01T23:53:26.300Z,0.40
2023-11-01T23:55:54.014Z,0.43
2023-11-01T23:58:34.793Z,0.85
